createdAt,value
2023-04-19T00:01:04.587Z,99348.00
2023-04-19T00:03:32.674Z,99343.41
2023-04-19T00:06:00.368Z,99345.94
2023-04-19T00:08:27.992Z,99344.63
2023-04-19T00:10:55.507Z,99347.88
2023-04-19T00:13:23.080Z,99349.31
2023-04-19T00:15:50.751Z,99348.88
2023-04-19T00:18:18.284Z,99352.59
2023-04-19T00:20:45.884Z,99350.50
2023-04-19T00:23:13.364Z,99347.72
2023-04-19T00:25:40.819Z,99349.75
2023-04-19T00:28:08.426Z,99355.09
2023-04-19T00:30:36.059Z,99360.13
2023-04-19T00:33:03.762Z,99359.41
2023-04-19T00:35:31.323Z,99351.72
2023-04-19T00:37:58.706Z,99357.50
2023-04-19T00:40:26.344Z,99354.66
2023-04-19T00:42:53.844Z,99351.06
2023-04-19T00:45:21.349Z,99364.66
2023-04-19T00:47:48.948Z,99364.66
2023-04-19T00:50:16.489Z,99364.38
2023-04-19T00:52:44.947Z,99374.88
2023-04-19T00:55:12.740Z,99372.22
2023-04-19T00:57:41.144Z,99374.44
2023-04-19T01:00:10.707Z,99370.69
2023-04-19T01:02:38.305Z,99377.09
2023-04-19T01:05:06.203Z,99372.81
2023-04-19T01:07:35.300Z,99366.38
2023-04-19T01:10:03.072Z,99374.88
2023-04-19T01:12:30.811Z,99377.09
2023-04-19T01:14:58.296Z,99378.19
2023-04-19T01:17:27.496Z,99377.59
2023-04-19T01:20:09.136Z,99377.41
2023-04-19T01:22:38.231Z,99382.41
2023-04-19T01:25:07.770Z,99383.69
2023-04-19T01:27:35.558Z,99378.47
2023-04-19T01:30:03.236Z,99376.81
2023-04-19T01:32:31.534Z,99379.34
2023-04-19T01:34:59.136Z,99376.94
2023-04-19T01:37:26.789Z,99379.66
2023-04-19T01:39:54.241Z,99377.69
2023-04-19T01:42:21.919Z,99390.28
2023-04-19T01:44:49.383Z,99388.06
2023-04-19T01:47:16.905Z,99389.84
2023-04-19T01:49:44.422Z,99391.41
2023-04-19T01:52:11.979Z,99391.81
2023-04-19T01:54:39.508Z,99398.03
2023-04-19T01:57:06.918Z,99405.75
2023-04-19T01:59:34.383Z,99391.00
2023-04-19T02:02:02.067Z,99408.16
2023-04-19T02:04:30.725Z,99407.31
2023-04-19T02:06:58.836Z,99408.78
2023-04-19T02:09:27.081Z,99408.78
2023-04-19T02:11:54.601Z,99409.72
2023-04-19T02:14:22.496Z,99416.19
2023-04-19T02:16:50.113Z,99404.63
2023-04-19T02:19:18.324Z,99413.75
2023-04-19T02:21:45.939Z,99405.94
2023-04-19T02:24:15.325Z,99405.41
2023-04-19T02:26:43.222Z,99403.81
2023-04-19T02:29:10.782Z,99413.66
2023-04-19T02:31:39.137Z,99408.63
2023-04-19T02:34:09.821Z,99408.13
2023-04-19T02:36:37.427Z,99408.69
2023-04-19T02:39:05.976Z,99410.13
2023-04-19T02:41:33.521Z,99410.22
2023-04-19T02:44:02.886Z,99404.97
2023-04-19T02:46:32.643Z,99406.03
2023-04-19T02:49:01.822Z,99409.72
2023-04-19T02:51:29.808Z,99412.25
2023-04-19T02:54:11.599Z,99415.44
2023-04-19T02:56:40.124Z,99417.31
2023-04-19T02:59:07.661Z,99409.91
2023-04-19T03:01:40.888Z,99412.50
2023-04-19T03:04:09.037Z,99414.53
2023-04-19T03:06:37.095Z,99415.13
2023-04-19T03:09:04.862Z,99420.59
2023-04-19T03:11:32.318Z,99414.94
2023-04-19T03:13:59.793Z,99419.69
2023-04-19T03:16:27.431Z,99414.09
2023-04-19T03:18:55.321Z,99414.75
2023-04-19T03:21:27.666Z,99415.16
2023-04-19T03:23:56.574Z,99426.97
2023-04-19T03:26:27.172Z,99429.09
2023-04-19T03:28:57.212Z,99418.38
2023-04-19T03:31:31.971Z,99414.59
2023-04-19T03:34:00.632Z,99416.66
2023-04-19T03:36:34.273Z,99417.97
2023-04-19T03:39:04.065Z,99422.31
2023-04-19T03:41:31.696Z,99423.16
2023-04-19T03:44:13.108Z,99433.28
2023-04-19T03:46:43.906Z,99421.75
2023-04-19T03:49:12.212Z,99433.06
2023-04-19T03:51:42.525Z,99418.75
2023-04-19T03:54:10.204Z,99412.97
2023-04-19T03:56:38.246Z,99424.06
2023-04-19T03:59:06.291Z,99429.09
2023-04-19T04:01:42.518Z,99432.00
2023-04-19T04:04:10.804Z,99434.25
2023-04-19T04:06:38.468Z,99426.44
2023-04-19T04:09:05.982Z,99428.38
2023-04-19T04:11:33.573Z,99429.28
2023-04-19T04:14:01.100Z,99424.97
2023-04-19T04:16:32.186Z,99430.91
2023-04-19T04:19:00.243Z,99427.53
2023-04-19T04:21:30.950Z,99433.31
2023-04-19T04:24:04.931Z,99439.63
2023-04-19T04:26:42.645Z,99439.91
2023-04-19T04:29:25.235Z,99433.34
2023-04-19T04:31:57.150Z,99436.38
2023-04-19T04:34:30.213Z,99443.81
2023-04-19T04:37:06.111Z,99442.97
2023-04-19T04:39:39.328Z,99437.84
2023-04-19T04:42:11.092Z,99439.47
2023-04-19T04:44:39.455Z,99443.19
2023-04-19T04:47:09.021Z,99438.72
2023-04-19T04:49:44.138Z,99441.00
2023-04-19T04:52:11.617Z,99428.25
2023-04-19T04:54:51.999Z,99428.69
2023-04-19T04:57:26.678Z,99417.94
2023-04-19T04:59:55.874Z,99440.19
2023-04-19T05:02:25.949Z,99433.41
2023-04-19T05:04:54.283Z,99426.72
2023-04-19T05:07:21.788Z,99431.69
2023-04-19T05:09:49.465Z,99438.88
2023-04-19T05:12:22.793Z,99435.09
2023-04-19T05:14:51.083Z,99427.09
2023-04-19T05:17:18.926Z,99431.50
2023-04-19T05:19:47.060Z,99434.03
2023-04-19T05:22:14.622Z,99428.75
2023-04-19T05:24:43.179Z,99430.34
2023-04-19T05:27:11.585Z,99429.69
2023-04-19T05:29:39.090Z,99436.81
2023-04-19T05:32:07.929Z,99434.47
2023-04-19T05:34:43.353Z,99433.84
2023-04-19T05:37:14.224Z,99436.53
2023-04-19T05:39:44.353Z,99431.84
2023-04-19T05:42:12.186Z,99428.00
2023-04-19T05:44:39.673Z,99428.44
2023-04-19T05:47:07.489Z,99426.09
2023-04-19T05:50:04.954Z,99427.59
2023-04-19T05:52:36.507Z,99420.91
2023-04-19T05:55:06.122Z,99429.53
2023-04-19T05:57:35.406Z,99416.88
2023-04-19T06:00:05.143Z,99420.97
2023-04-19T06:02:44.982Z,99410.50
2023-04-19T06:05:14.667Z,99411.66
2023-04-19T06:07:47.337Z,99416.13
2023-04-19T06:10:24.242Z,99428.88
2023-04-19T06:12:52.501Z,99414.00
2023-04-19T06:15:20.031Z,99419.97
2023-04-19T06:17:47.837Z,99406.56
2023-04-19T06:20:15.315Z,99422.19
2023-04-19T06:22:45.344Z,99422.31
2023-04-19T06:25:12.938Z,99406.47
2023-04-19T06:27:41.001Z,99413.22
2023-04-19T06:30:08.809Z,99413.34
2023-04-19T06:32:36.398Z,99411.41
2023-04-19T06:35:04.761Z,99406.56
2023-04-19T06:37:34.210Z,99406.41
2023-04-19T06:40:01.918Z,99400.72
2023-04-19T06:42:30.503Z,99402.44
2023-04-19T06:44:57.977Z,99415.06
2023-04-19T06:47:25.752Z,99415.53
2023-04-19T06:49:53.388Z,99404.16
2023-04-19T06:52:20.952Z,99390.91
2023-04-19T06:54:51.938Z,99403.78
2023-04-19T06:57:19.624Z,99401.28
2023-04-19T06:59:47.113Z,99398.84
2023-04-19T07:02:14.671Z,99394.16
2023-04-19T07:04:42.310Z,99395.75
2023-04-19T07:07:09.997Z,99392.75
2023-04-19T07:09:37.500Z,99392.75
2023-04-19T07:12:05.155Z,99392.88
2023-04-19T07:14:33.366Z,99396.91
2023-04-19T07:17:01.188Z,99393.53
2023-04-19T07:19:29.350Z,99388.13
2023-04-19T07:21:56.814Z,99382.28
2023-04-19T07:24:24.324Z,99397.00
2023-04-19T07:26:51.902Z,99383.22
2023-04-19T07:29:19.674Z,99379.53
2023-04-19T07:31:47.192Z,99379.69
2023-04-19T07:34:14.956Z,99382.06
2023-04-19T07:36:42.744Z,99371.09
2023-04-19T07:39:10.213Z,99368.00
2023-04-19T07:41:37.696Z,99358.88
2023-04-19T07:44:05.343Z,99356.69
2023-04-19T07:46:32.951Z,99363.69
2023-04-19T07:49:00.678Z,99366.78
2023-04-19T07:51:28.283Z,99364.63
2023-04-19T07:53:55.935Z,99353.13
2023-04-19T07:56:23.764Z,99355.56
2023-04-19T07:59:04.316Z,99344.38
2023-04-19T08:01:36.099Z,99360.47
2023-04-19T08:04:04.224Z,99347.25
2023-04-19T08:06:32.718Z,99349.09
2023-04-19T08:09:00.376Z,99349.25
2023-04-19T08:11:28.052Z,99341.66
2023-04-19T08:14:06.867Z,99354.50
2023-04-19T08:17:19.246Z,99351.28
2023-04-19T08:19:30.319Z,99345.78
2023-04-19T08:21:57.819Z,99341.72
2023-04-19T08:24:25.383Z,99326.34
2023-04-19T08:26:58.205Z,99329.50
2023-04-19T08:29:26.945Z,99338.88
2023-04-19T08:31:54.563Z,99334.28
2023-04-19T08:34:22.143Z,99331.63
2023-04-19T08:37:00.185Z,99325.06
2023-04-19T08:39:35.248Z,99348.41
2023-04-19T08:42:13.459Z,99339.47
2023-04-19T08:45:23.562Z,99339.69
2023-04-19T08:47:58.748Z,99327.16
2023-04-19T08:50:35.422Z,99307.81
2023-04-19T08:56:03.425Z,99311.00
2023-04-19T09:01:12.803Z,99317.66
2023-04-19T09:04:01.203Z,99311.41
2023-04-19T09:06:39.197Z,99320.69
2023-04-19T09:09:37.231Z,99340.19
2023-04-19T09:12:19.893Z,99326.72
2023-04-19T09:17:18.748Z,99308.41
2023-04-19T09:19:50.426Z,99312.94
2023-04-19T09:22:18.651Z,99301.66
2023-04-19T09:27:25.868Z,99315.78
2023-04-19T09:29:54.909Z,99303.91
2023-04-19T09:32:23.112Z,99299.53
2023-04-19T09:34:58.294Z,99296.53
2023-04-19T09:37:51.413Z,99298.09
2023-04-19T09:40:25.287Z,99292.25
2023-04-19T09:48:05.371Z,99281.78
2023-04-19T09:50:38.741Z,99283.53
2023-04-19T09:53:14.326Z,99274.94
2023-04-19T09:55:53.319Z,99265.56
2023-04-19T09:58:29.424Z,99275.06
2023-04-19T10:01:14.234Z,99269.75
2023-04-19T10:03:46.368Z,99276.97
2023-04-19T10:06:37.349Z,99273.78
2023-04-19T10:09:05.629Z,99274.53
2023-04-19T10:11:39.239Z,99263.88
2023-04-19T10:14:10.576Z,99268.31
2023-04-19T10:16:39.458Z,99272.06
2023-04-19T10:19:12.854Z,99272.34
2023-04-19T10:21:42.659Z,99270.50
2023-04-19T10:24:13.648Z,99261.91
2023-04-19T10:27:06.195Z,99265.69
2023-04-19T10:29:52.366Z,99254.19
2023-04-19T10:32:20.122Z,99250.00
2023-04-19T10:34:47.879Z,99258.16
2023-04-19T10:37:15.479Z,99258.75
2023-04-19T10:39:44.719Z,99256.03
2023-04-19T10:42:13.348Z,99243.75
2023-04-19T10:44:40.796Z,99236.25
2023-04-19T10:47:08.469Z,99245.44
2023-04-19T10:49:46.673Z,99244.91
2023-04-19T10:52:32.051Z,99254.97
2023-04-19T10:55:04.382Z,99256.09
2023-04-19T10:58:05.070Z,99243.25
2023-04-19T11:00:33.985Z,99250.06
2023-04-19T11:03:42.188Z,99244.22
2023-04-19T11:06:27.368Z,99243.69
2023-04-19T11:08:55.263Z,99245.34
2023-04-19T11:11:23.787Z,99240.97
2023-04-19T11:13:58.284Z,99233.47
2023-04-19T11:16:42.060Z,99213.41
2023-04-19T11:19:21.547Z,99228.81
2023-04-19T11:21:49.956Z,99233.34
2023-04-19T11:24:20.989Z,99231.06
2023-04-19T11:26:49.049Z,99228.47
2023-04-19T11:29:17.152Z,99210.53
2023-04-19T11:31:46.892Z,99227.78
2023-04-19T11:34:15.042Z,99206.19
2023-04-19T11:36:52.419Z,99214.28
2023-04-19T11:39:20.210Z,99210.16
2023-04-19T11:41:47.752Z,99198.53
2023-04-19T11:44:22.412Z,99205.00
2023-04-19T11:47:01.068Z,99197.94
2023-04-19T11:49:33.913Z,99195.28
2023-04-19T11:52:05.522Z,99199.16
2023-04-19T11:54:36.292Z,99193.19
2023-04-19T11:57:08.135Z,99197.28
2023-04-19T11:59:37.243Z,99185.34
2023-04-19T12:02:12.659Z,99177.00
2023-04-19T12:04:44.806Z,99173.31
2023-04-19T12:07:15.366Z,99177.59
2023-04-19T12:09:42.840Z,99162.97
2023-04-19T12:12:10.610Z,99167.38
2023-04-19T12:14:52.393Z,99177.91
2023-04-19T12:17:22.874Z,99172.63
2023-04-19T12:19:52.364Z,99168.94
2023-04-19T12:22:26.506Z,99156.09
2023-04-19T12:24:56.155Z,99153.19
2023-04-19T12:27:25.881Z,99151.13
2023-04-19T12:29:53.436Z,99153.25
2023-04-19T12:32:21.456Z,99156.66
2023-04-19T12:34:48.986Z,99156.63
2023-04-19T12:37:16.481Z,99154.78
2023-04-19T12:39:43.974Z,99138.47
2023-04-19T12:42:11.585Z,99162.38
2023-04-19T12:44:39.341Z,99148.41
2023-04-19T12:47:06.861Z,99143.84
2023-04-19T12:49:34.602Z,99148.25
2023-04-19T12:52:02.340Z,99141.47
2023-04-19T12:54:29.875Z,99137.03
2023-04-19T12:56:58.022Z,99141.59
2023-04-19T12:59:25.626Z,99133.44
2023-04-19T13:01:53.368Z,99128.47
2023-04-19T13:04:21.388Z,99145.91
2023-04-19T13:06:52.368Z,99134.16
2023-04-19T13:09:20.008Z,99136.47
2023-04-19T13:11:47.763Z,99131.44
2023-04-19T13:14:15.627Z,99124.94
2023-04-19T13:16:43.414Z,99122.84
2023-04-19T13:19:11.444Z,99124.53
2023-04-19T13:21:39.093Z,99123.72
2023-04-19T13:24:07.196Z,99115.88
2023-04-19T13:26:35.336Z,99126.03
2023-04-19T13:29:03.738Z,99125.59
2023-04-19T13:31:31.576Z,99111.88
2023-04-19T13:34:00.952Z,99111.50
2023-04-19T13:36:28.696Z,99125.75
2023-04-19T13:38:56.435Z,99115.19
2023-04-19T13:41:24.204Z,99115.94
2023-04-19T13:43:51.887Z,99110.19
2023-04-19T13:46:19.540Z,99115.94
2023-04-19T13:48:48.070Z,99110.31
2023-04-19T13:51:15.797Z,99113.03
2023-04-19T13:53:43.349Z,99098.06
2023-04-19T13:56:11.578Z,99100.69
2023-04-19T13:58:39.396Z,99097.41
2023-04-19T14:01:10.061Z,99097.50
2023-04-19T14:03:39.981Z,99095.16
2023-04-19T14:06:08.729Z,99092.03
2023-04-19T14:08:36.681Z,99094.09
2023-04-19T14:11:04.656Z,99087.72
2023-04-19T14:13:32.556Z,99086.69
2023-04-19T14:16:00.230Z,99070.91
2023-04-19T14:18:27.960Z,99086.34
2023-04-19T14:20:55.839Z,99082.59
2023-04-19T14:23:23.558Z,99081.63
2023-04-19T14:25:51.350Z,99069.56
2023-04-19T14:28:19.884Z,99081.97
2023-04-19T14:30:47.579Z,99083.78
2023-04-19T14:33:15.370Z,99079.47
2023-04-19T14:35:43.462Z,99083.78
2023-04-19T14:38:11.520Z,99072.84
2023-04-19T14:40:39.191Z,99067.41
2023-04-19T14:43:06.943Z,99068.97
2023-04-19T14:45:35.419Z,99079.81
2023-04-19T14:48:03.262Z,99076.69
2023-04-19T14:50:31.028Z,99069.47
2023-04-19T14:52:58.800Z,99065.84
2023-04-19T14:55:28.205Z,99077.81
2023-04-19T14:57:56.049Z,99069.47
2023-04-19T15:00:23.756Z,99067.53
2023-04-19T15:02:51.726Z,99072.41
2023-04-19T15:05:19.835Z,99063.81
2023-04-19T15:07:47.584Z,99059.50
2023-04-19T15:10:15.283Z,99067.59
2023-04-19T15:12:42.959Z,99062.31
2023-04-19T15:15:11.221Z,99049.47
2023-04-19T15:17:39.057Z,99060.31
2023-04-19T15:20:07.400Z,99060.28
2023-04-19T15:22:35.078Z,99058.72
2023-04-19T15:25:02.829Z,99059.72
2023-04-19T15:27:31.701Z,99061.22
2023-04-19T15:29:59.365Z,99062.06
2023-04-19T15:32:27.897Z,99060.25
2023-04-19T15:34:55.569Z,99062.50
2023-04-19T15:37:23.204Z,99066.81
2023-04-19T15:39:50.990Z,99070.66
2023-04-19T15:42:18.736Z,99060.75
2023-04-19T15:44:46.446Z,99055.66
2023-04-19T15:47:14.020Z,99062.41
2023-04-19T15:49:41.794Z,99065.59
2023-04-19T15:52:09.901Z,99065.00
2023-04-19T15:54:38.072Z,99064.31
2023-04-19T15:57:05.697Z,99046.47
2023-04-19T15:59:33.415Z,99054.94
2023-04-19T16:02:01.286Z,99047.78
2023-04-19T16:04:29.064Z,99060.16
2023-04-19T16:06:56.816Z,99057.63
2023-04-19T16:09:24.474Z,99058.75
2023-04-19T16:11:52.248Z,99058.44
2023-04-19T16:14:19.920Z,99061.75
2023-04-19T16:16:48.277Z,99058.25
2023-04-19T16:19:16.234Z,99063.31
2023-04-19T16:21:44.097Z,99046.06
2023-04-19T16:24:11.784Z,99051.34
2023-04-19T16:26:39.545Z,99055.47
2023-04-19T16:29:07.245Z,99045.50
2023-04-19T16:31:37.304Z,99064.63
2023-04-19T16:34:05.057Z,99055.16
2023-04-19T16:36:32.942Z,99048.50
2023-04-19T16:39:01.736Z,99052.16
2023-04-19T16:41:30.591Z,99057.53
2023-04-19T16:43:58.310Z,99048.19
2023-04-19T16:46:26.145Z,99054.81
2023-04-19T16:48:53.945Z,99054.81
2023-04-19T16:51:22.008Z,99057.22
2023-04-19T16:53:49.676Z,99054.03
2023-04-19T16:56:17.965Z,99045.63
2023-04-19T16:58:46.659Z,99049.56
2023-04-19T17:01:14.999Z,99046.09
2023-04-19T17:03:43.241Z,99060.16
2023-04-19T17:06:11.140Z,99053.97
2023-04-19T17:08:40.207Z,99049.09
2023-04-19T17:11:13.984Z,99038.63
2023-04-19T17:13:41.664Z,99049.59
2023-04-19T17:16:09.323Z,99040.72
2023-04-19T17:18:37.110Z,99036.75
2023-04-19T17:21:04.770Z,99035.97
2023-04-19T17:23:32.466Z,99035.84
2023-04-19T17:26:00.176Z,99027.59
2023-04-19T17:28:28.773Z,99028.88
2023-04-19T17:30:56.824Z,99027.88
2023-04-19T17:33:24.352Z,99026.75
2023-04-19T17:35:52.120Z,99022.50
2023-04-19T17:38:19.686Z,99022.97
2023-04-19T17:40:47.560Z,99018.88
2023-04-19T17:43:15.565Z,99021.56
2023-04-19T17:45:43.153Z,99029.25
2023-04-19T17:48:10.915Z,99019.97
2023-04-19T17:50:38.598Z,99007.63
2023-04-19T17:53:06.181Z,99012.78
2023-04-19T17:55:34.156Z,99020.38
2023-04-19T17:58:01.937Z,99012.09
2023-04-19T18:00:29.771Z,99023.63
2023-04-19T18:02:57.550Z,99018.03
2023-04-19T18:05:25.347Z,99011.88
2023-04-19T18:07:53.075Z,99014.91
2023-04-19T18:10:21.575Z,99014.44
2023-04-19T18:12:49.418Z,98996.25
2023-04-19T18:15:17.153Z,98997.56
2023-04-19T18:17:44.838Z,98999.25
2023-04-19T18:20:13.774Z,99013.88
2023-04-19T18:22:41.671Z,99002.94
2023-04-19T18:25:09.803Z,99002.41
2023-04-19T18:27:37.529Z,99001.59
2023-04-19T18:30:06.912Z,98996.47
2023-04-19T18:32:35.909Z,98999.56
2023-04-19T18:35:09.199Z,98994.91
2023-04-19T18:37:36.895Z,98997.56
2023-04-19T18:40:08.409Z,98997.31
2023-04-19T18:42:36.119Z,98999.06
2023-04-19T18:45:04.445Z,98992.06
2023-04-19T18:47:32.981Z,99000.44
2023-04-19T18:50:05.983Z,98992.50
2023-04-19T18:52:36.735Z,99000.88
2023-04-19T18:55:07.828Z,98993.50
2023-04-19T18:57:35.637Z,98989.31
2023-04-19T19:00:06.695Z,98995.22
2023-04-19T19:02:36.666Z,98987.44
2023-04-19T19:05:07.456Z,98990.72
2023-04-19T19:07:37.111Z,98986.19
2023-04-19T19:12:40.058Z,98979.66
2023-04-19T19:15:08.622Z,98985.31
2023-04-19T19:17:36.460Z,98977.88
2023-04-19T19:20:05.783Z,98989.03
2023-04-19T19:22:34.110Z,98976.06
2023-04-19T19:25:01.858Z,98973.75
2023-04-19T19:27:30.833Z,98976.72
2023-04-19T19:29:59.059Z,98972.91
2023-04-19T19:32:26.858Z,98970.22
2023-04-19T19:35:00.582Z,98978.25
2023-04-19T19:37:30.601Z,98964.53
2023-04-19T19:40:02.733Z,98961.81
2023-04-19T19:42:32.187Z,98964.81
2023-04-19T19:44:59.910Z,98958.31
2023-04-19T19:47:32.738Z,98962.59
2023-04-19T19:52:32.257Z,98953.22
2023-04-19T19:55:01.324Z,98952.97
2023-04-19T20:00:18.027Z,98949.63
2023-04-19T20:05:19.367Z,98945.19
2023-04-19T20:08:00.987Z,98942.81
2023-04-19T20:10:29.770Z,98943.13
2023-04-19T20:12:57.659Z,98935.06
2023-04-19T20:15:25.335Z,98936.00
2023-04-19T20:17:52.982Z,98928.84
2023-04-19T20:20:21.302Z,98929.03
2023-04-19T20:22:49.560Z,98930.91
2023-04-19T20:25:17.339Z,98924.47
2023-04-19T20:27:45.087Z,98926.47
2023-04-19T20:30:13.427Z,98922.16
2023-04-19T20:32:43.175Z,98924.72
2023-04-19T20:35:12.671Z,98925.69
2023-04-19T20:37:40.625Z,98917.78
2023-04-19T20:40:12.656Z,98913.81
2023-04-19T20:42:41.509Z,98909.63
2023-04-19T20:45:13.156Z,98918.28
2023-04-19T20:47:41.490Z,98912.84
2023-04-19T20:50:09.694Z,98919.13
2023-04-19T20:52:37.472Z,98910.53
2023-04-19T20:55:05.567Z,98903.69
2023-04-19T20:57:33.390Z,98904.44
2023-04-19T21:00:01.056Z,98898.97
2023-04-19T21:02:31.949Z,98897.38
2023-04-19T21:04:59.779Z,98898.91
2023-04-19T21:07:27.479Z,98884.34
2023-04-19T21:09:55.107Z,98886.41
2023-04-19T21:12:22.846Z,98891.75
2023-04-19T21:15:05.359Z,98884.91
2023-04-19T21:17:33.113Z,98883.56
2023-04-19T21:20:02.858Z,98880.72
2023-04-19T21:22:30.945Z,98873.94
2023-04-19T21:24:58.724Z,98869.91
2023-04-19T21:27:26.420Z,98873.88
2023-04-19T21:29:53.958Z,98876.19
2023-04-19T21:32:22.977Z,98866.94
2023-04-19T21:34:50.572Z,98863.22
2023-04-19T21:37:20.125Z,98852.59
2023-04-19T21:39:48.741Z,98854.56
2023-04-19T21:42:16.445Z,98858.31
2023-04-19T21:44:44.149Z,98851.16
2023-04-19T21:47:12.756Z,98851.47
2023-04-19T21:49:41.413Z,98847.91
2023-04-19T21:52:09.005Z,98848.81
2023-04-19T21:54:36.888Z,98846.94
2023-04-19T21:57:04.650Z,98854.47
2023-04-19T21:59:35.957Z,98854.19
2023-04-19T22:02:04.173Z,98853.81
2023-04-19T22:04:32.111Z,98836.47
2023-04-19T22:07:03.065Z,98836.09
2023-04-19T22:09:31.162Z,98844.69
2023-04-19T22:11:58.858Z,98831.31
2023-04-19T22:14:26.479Z,98823.88
2023-04-19T22:16:54.599Z,98829.03
2023-04-19T22:19:24.930Z,98822.47
2023-04-19T22:21:53.720Z,98819.97
2023-04-19T22:24:22.732Z,98815.41
2023-04-19T22:26:51.299Z,98813.59
2023-04-19T22:29:19.761Z,98805.31
2023-04-19T22:31:47.718Z,98808.78
2023-04-19T22:34:15.376Z,98797.09
2023-04-19T22:36:43.080Z,98791.63
2023-04-19T22:39:10.814Z,98791.50
2023-04-19T22:41:38.584Z,98794.66
2023-04-19T22:44:06.394Z,98794.19
2023-04-19T22:46:34.072Z,98792.41
2023-04-19T22:49:02.437Z,98792.59
2023-04-19T22:51:30.872Z,98785.53
2023-04-19T22:53:58.745Z,98787.56
2023-04-19T22:56:26.743Z,98784.88
2023-04-19T22:58:54.392Z,98782.06
2023-04-19T23:01:22.260Z,98783.28
2023-04-19T23:03:49.830Z,98785.66
2023-04-19T23:06:18.278Z,98781.03
2023-04-19T23:08:46.076Z,98776.47
2023-04-19T23:11:14.119Z,98774.38
2023-04-19T23:13:41.888Z,98770.72
2023-04-19T23:16:12.454Z,98777.69
2023-04-19T23:18:40.710Z,98776.38
2023-04-19T23:21:08.957Z,98771.66
2023-04-19T23:23:36.629Z,98769.94
2023-04-19T23:26:04.199Z,98763.66
2023-04-19T23:28:32.120Z,98762.13
2023-04-19T23:30:59.724Z,98759.66
2023-04-19T23:33:27.464Z,98760.94
2023-04-19T23:35:55.047Z,98756.38
2023-04-19T23:38:23.047Z,98758.94
2023-04-19T23:40:50.836Z,98754.50
2023-04-19T23:43:18.493Z,98751.75
2023-04-19T23:45:46.517Z,98749.25
2023-04-19T23:48:14.106Z,98745.22
2023-04-19T23:50:41.803Z,98740.09
2023-04-19T23:53:09.531Z,98741.97
2023-04-19T23:55:38.682Z,98745.53
2023-04-19T23:58:06.943Z,98741.56
